createdAt,value
2023-04-14T00:00:17.293Z,61.7268
2023-04-14T00:01:19.666Z,61.1326
2023-04-14T00:02:22.070Z,61.0603
2023-04-14T00:03:24.619Z,61.1484
2023-04-14T00:04:26.862Z,61.1299
2023-04-14T00:05:28.967Z,60.6055
2023-04-14T00:06:31.298Z,60.8108
2023-04-14T00:07:33.609Z,61.0713
2023-04-14T00:08:35.945Z,60.9431
2023-04-14T00:09:38.286Z,61.5474
2023-04-14T00:10:40.617Z,61.7219
2023-04-14T00:11:42.961Z,60.8652
2023-04-14T00:12:45.290Z,60.9376
2023-04-14T00:13:47.609Z,60.8886
2023-04-14T00:14:49.940Z,60.9360
2023-04-14T00:15:52.284Z,60.9682
2023-04-14T00:16:54.673Z,60.9948
2023-04-14T00:17:56.994Z,61.2241
2023-04-14T00:18:59.519Z,61.4515
2023-04-14T00:20:01.602Z,61.7892
2023-04-14T00:21:03.929Z,61.8135
2023-04-14T00:22:06.278Z,61.3467
2023-04-14T00:23:08.593Z,61.4993
2023-04-14T00:24:10.928Z,61.8559
2023-04-14T00:25:13.260Z,61.8243
2023-04-14T00:26:15.587Z,61.7954
2023-04-14T00:27:17.946Z,61.9082
2023-04-14T00:28:20.256Z,61.5875
2023-04-14T00:29:22.578Z,61.5493
2023-04-14T00:30:24.920Z,60.8143
2023-04-14T00:31:27.331Z,60.6278
2023-04-14T00:32:29.621Z,60.8502
2023-04-14T00:33:31.898Z,61.0926
2023-04-14T00:34:34.239Z,61.2627
2023-04-14T00:35:36.564Z,61.4305
2023-04-14T00:36:38.893Z,61.4899
2023-04-14T00:37:41.250Z,61.1746
2023-04-14T00:38:43.558Z,60.9771
2023-04-14T00:39:45.897Z,60.6582
2023-04-14T00:40:48.233Z,60.6138
2023-04-14T00:41:50.557Z,60.1217
2023-04-14T00:42:52.913Z,60.0088
2023-04-14T00:43:55.227Z,60.2061
2023-04-14T00:44:57.562Z,59.9753
2023-04-14T00:45:59.915Z,59.8295
2023-04-14T00:47:02.249Z,60.1668
2023-04-14T00:48:04.570Z,59.4638
2023-04-14T00:49:06.887Z,60.0203
2023-04-14T00:50:09.226Z,60.3477
2023-04-14T00:51:11.560Z,60.1562
2023-04-14T00:52:13.916Z,59.9013
2023-04-14T00:53:16.240Z,60.5615
2023-04-14T00:54:18.556Z,60.8434
2023-04-14T00:55:20.879Z,60.5933
2023-04-14T00:56:23.215Z,60.1588
2023-04-14T00:57:25.548Z,60.0615
2023-04-14T00:58:27.903Z,60.6706
2023-04-14T00:59:30.220Z,61.2557
2023-04-14T01:00:32.548Z,61.1671
2023-04-14T01:01:34.908Z,61.0731
2023-04-14T01:02:37.572Z,60.8033
2023-04-14T01:03:39.643Z,60.7891
2023-04-14T01:04:53.561Z,60.6826
2023-04-14T01:05:44.202Z,60.9514
2023-04-14T01:06:46.520Z,61.1535
2023-04-14T01:07:48.850Z,61.2967
2023-04-14T01:08:51.182Z,61.0962
2023-04-14T01:09:53.521Z,60.8572
2023-04-14T01:10:55.838Z,60.8272
2023-04-14T01:11:58.181Z,60.7986
2023-04-14T01:13:00.503Z,61.0457
2023-04-14T01:14:02.874Z,61.6773
2023-04-14T01:15:05.185Z,61.7479
2023-04-14T01:16:07.528Z,61.7391
2023-04-14T01:17:09.838Z,61.1150
2023-04-14T01:18:12.169Z,61.0971
2023-04-14T01:19:14.691Z,61.3537
2023-04-14T01:20:16.836Z,61.5085
2023-04-14T01:21:19.166Z,61.5143
2023-04-14T01:22:21.502Z,61.5101
2023-04-14T01:23:23.850Z,61.6470
2023-04-14T01:24:26.175Z,61.5706
2023-04-14T01:25:28.493Z,61.1763
2023-04-14T01:26:30.825Z,61.6551
2023-04-14T01:27:33.156Z,61.6172
2023-04-14T01:28:35.484Z,61.4008
2023-04-14T01:29:37.822Z,60.6218
2023-04-14T01:30:40.136Z,60.5713
2023-04-14T01:31:42.526Z,60.4325
2023-04-14T01:32:44.836Z,59.6617
2023-04-14T01:33:47.139Z,60.4345
2023-04-14T01:34:49.481Z,60.5796
2023-04-14T01:35:51.794Z,59.4687
2023-04-14T01:36:54.114Z,59.3126
2023-04-14T01:37:56.469Z,59.9485
2023-04-14T01:38:58.961Z,60.0169
2023-04-14T01:40:01.130Z,59.5597
2023-04-14T01:41:03.440Z,59.2050
2023-04-14T01:42:05.794Z,58.6995
2023-04-14T01:43:08.114Z,58.4280
2023-04-14T01:44:10.443Z,59.8370
2023-04-14T01:45:12.777Z,60.7551
2023-04-14T01:46:15.155Z,60.8568
2023-04-14T01:47:17.464Z,61.0269
2023-04-14T01:48:19.780Z,60.2281
2023-04-14T01:49:22.176Z,59.8810
2023-04-14T01:50:24.445Z,59.9249
2023-04-14T01:51:26.768Z,59.6756
2023-04-14T01:52:29.111Z,60.2904
2023-04-14T01:53:31.432Z,59.8355
2023-04-14T01:54:33.788Z,59.0220
2023-04-14T01:55:36.114Z,58.9912
2023-04-14T01:56:38.440Z,58.9164
2023-04-14T01:57:40.792Z,59.3625
2023-04-14T01:58:43.097Z,58.6478
2023-04-14T01:59:45.420Z,58.5380
2023-04-14T02:00:47.756Z,59.0913
2023-04-14T02:01:50.168Z,59.3915
2023-04-14T02:02:52.613Z,60.0040
2023-04-14T02:03:54.813Z,60.4848
2023-04-14T02:04:57.082Z,60.0461
2023-04-14T02:05:59.413Z,60.1838
2023-04-14T02:07:01.816Z,60.8642
2023-04-14T02:08:04.085Z,61.0199
2023-04-14T02:09:06.411Z,61.3906
2023-04-14T02:10:08.756Z,61.2389
2023-04-14T02:11:11.089Z,61.0035
2023-04-14T02:12:13.424Z,60.6979
2023-04-14T02:13:15.748Z,61.0141
2023-04-14T02:14:18.081Z,61.2546
2023-04-14T02:15:20.414Z,60.9159
2023-04-14T02:16:22.773Z,60.7395
2023-04-14T02:17:25.108Z,61.0511
2023-04-14T02:18:27.416Z,61.3271
2023-04-14T02:19:29.762Z,61.2170
2023-04-14T02:20:32.069Z,61.1400
2023-04-14T02:21:34.393Z,60.8789
2023-04-14T02:22:36.722Z,60.6081
2023-04-14T02:23:39.044Z,60.4274
2023-04-14T02:24:41.397Z,60.2568
2023-04-14T02:25:43.714Z,60.2010
2023-04-14T02:26:46.043Z,60.4644
2023-04-14T02:27:48.372Z,60.5557
2023-04-14T02:28:50.698Z,60.4017
2023-04-14T02:29:53.057Z,60.2805
2023-04-14T02:30:55.405Z,60.4584
2023-04-14T02:31:57.707Z,60.6641
2023-04-14T02:33:00.041Z,60.6543
2023-04-14T02:34:02.347Z,60.7687
2023-04-14T02:35:04.690Z,60.3563
2023-04-14T02:36:07.005Z,60.3391
2023-04-14T02:37:09.350Z,60.6019
2023-04-14T02:38:11.683Z,60.7608
2023-04-14T02:39:14.002Z,60.3245
2023-04-14T02:40:16.337Z,59.6928
2023-04-14T02:41:18.652Z,59.5206
2023-04-14T02:42:20.984Z,59.9054
2023-04-14T02:43:23.314Z,60.1429
2023-04-14T02:44:25.651Z,60.6316
2023-04-14T02:45:28.061Z,61.1991
2023-04-14T02:46:30.410Z,61.6603
2023-04-14T02:47:32.741Z,61.3857
2023-04-14T02:48:35.028Z,61.4555
2023-04-14T02:49:37.384Z,61.2487
2023-04-14T02:50:39.697Z,61.1169
2023-04-14T02:51:42.014Z,61.4147
2023-04-14T02:52:44.342Z,61.5368
2023-04-14T02:53:46.673Z,61.2791
2023-04-14T02:54:49.020Z,60.7304
2023-04-14T02:55:51.336Z,61.1517
2023-04-14T02:56:53.658Z,61.7292
2023-04-14T02:57:55.990Z,61.5259
2023-04-14T02:58:58.452Z,61.4568
2023-04-14T03:00:00.645Z,61.6278
2023-04-14T03:01:02.987Z,61.5150
2023-04-14T03:02:05.444Z,60.9176
2023-04-14T03:03:07.846Z,60.5348
2023-04-14T03:04:10.001Z,60.6792
2023-04-14T03:05:12.298Z,60.6213
2023-04-14T03:06:14.637Z,60.5957
2023-04-14T03:07:16.949Z,60.3563
2023-04-14T03:08:19.277Z,60.5732
2023-04-14T03:09:21.608Z,60.6055
2023-04-14T03:10:23.937Z,60.8321
2023-04-14T03:11:26.310Z,60.9100
2023-04-14T03:12:28.621Z,60.7990
2023-04-14T03:13:30.925Z,61.0425
2023-04-14T03:14:33.255Z,61.7877
2023-04-14T03:15:35.636Z,62.3882
2023-04-14T03:16:37.938Z,61.9789
2023-04-14T03:17:40.314Z,61.3273
2023-04-14T03:18:42.567Z,60.9654
2023-04-14T03:19:44.895Z,60.6749
2023-04-14T03:20:47.284Z,61.1659
2023-04-14T03:21:49.589Z,61.1441
2023-04-14T03:22:51.889Z,60.6029
2023-04-14T03:23:54.220Z,60.4927
2023-04-14T03:24:56.569Z,61.0497
2023-04-14T03:25:58.874Z,60.6078
2023-04-14T03:27:01.221Z,60.4595
2023-04-14T03:28:03.534Z,60.7071
2023-04-14T03:29:05.866Z,60.8072
2023-04-14T03:30:08.193Z,60.4549
2023-04-14T03:31:10.562Z,60.1043
2023-04-14T03:32:12.867Z,59.9760
2023-04-14T03:33:15.182Z,59.3497
2023-04-14T03:34:17.520Z,59.8745
2023-04-14T03:35:19.848Z,60.9577
2023-04-14T03:36:22.188Z,61.7444
2023-04-14T03:37:24.532Z,62.3400
2023-04-14T03:38:26.839Z,62.0370
2023-04-14T03:39:29.167Z,62.0406
2023-04-14T03:40:31.515Z,62.1753
2023-04-14T03:41:33.833Z,62.5061
2023-04-14T03:42:36.268Z,62.7041
2023-04-14T03:43:38.504Z,62.6705
2023-04-14T03:44:40.828Z,62.5833
2023-04-14T03:45:43.140Z,62.4029
2023-04-14T03:46:45.486Z,62.1542
2023-04-14T03:47:47.851Z,61.8677
2023-04-14T03:48:50.133Z,61.6661
2023-04-14T03:49:52.456Z,62.0497
2023-04-14T03:50:54.813Z,62.1854
2023-04-14T03:51:57.117Z,61.8589
2023-04-14T03:52:59.450Z,61.1474
2023-04-14T03:54:01.779Z,60.8132
2023-04-14T03:55:04.123Z,61.1714
2023-04-14T03:56:06.453Z,61.2861
2023-04-14T03:57:08.769Z,61.2479
2023-04-14T03:58:11.111Z,61.4736
2023-04-14T03:59:13.437Z,60.8904
2023-04-14T04:00:15.844Z,60.2287
2023-04-14T04:01:18.096Z,60.3754
2023-04-14T04:02:20.544Z,60.2048
2023-04-14T04:03:23.060Z,60.2285
2023-04-14T04:04:25.228Z,60.8353
2023-04-14T04:05:27.428Z,60.7143
2023-04-14T04:06:29.733Z,60.4405
2023-04-14T04:07:32.058Z,60.8634
2023-04-14T04:08:34.406Z,60.5846
2023-04-14T04:09:36.712Z,60.5053
2023-04-14T04:10:39.052Z,60.9481
2023-04-14T04:11:41.377Z,60.7031
2023-04-14T04:12:43.836Z,60.7820
2023-04-14T04:13:46.042Z,61.2842
2023-04-14T04:14:48.364Z,61.1325
2023-04-14T04:15:50.700Z,61.4202
2023-04-14T04:16:53.077Z,61.7248
2023-04-14T04:17:55.367Z,62.2367
2023-04-14T04:18:57.711Z,62.0337
2023-04-14T04:20:00.003Z,61.8656
2023-04-14T04:21:02.408Z,61.5960
2023-04-14T04:22:04.679Z,61.4963
2023-04-14T04:23:06.993Z,61.8200
2023-04-14T04:24:09.337Z,62.1431
2023-04-14T04:25:11.659Z,61.8647
2023-04-14T04:26:14.018Z,62.0245
2023-04-14T04:27:27.237Z,62.0251
2023-04-14T04:28:18.636Z,62.0267
2023-04-14T04:29:20.975Z,61.7107
2023-04-14T04:30:23.296Z,61.3021
2023-04-14T04:31:25.647Z,61.3092
2023-04-14T04:32:28.185Z,61.5550
2023-04-14T04:33:30.280Z,62.0456
2023-04-14T04:34:32.620Z,62.2518
2023-04-14T04:35:34.937Z,62.1277
2023-04-14T04:36:37.274Z,62.1725
2023-04-14T04:37:39.628Z,61.9760
2023-04-14T04:38:41.944Z,61.6162
2023-04-14T04:39:44.260Z,61.6340
2023-04-14T04:40:46.591Z,61.3715
2023-04-14T04:41:48.929Z,61.1411
2023-04-14T04:42:51.277Z,61.0220
2023-04-14T04:43:53.588Z,61.1962
2023-04-14T04:44:55.930Z,61.5597
2023-04-14T04:45:58.340Z,61.6277
2023-04-14T04:47:00.578Z,61.3987
2023-04-14T04:48:03.002Z,61.3129
2023-04-14T04:49:05.264Z,61.4122
2023-04-14T04:50:07.580Z,61.5420
2023-04-14T04:51:09.901Z,61.5902
2023-04-14T04:52:12.250Z,61.7164
2023-04-14T04:53:14.594Z,61.2148
2023-04-14T04:54:16.893Z,60.8678
2023-04-14T04:55:19.220Z,60.4636
2023-04-14T04:56:21.553Z,59.9418
2023-04-14T04:57:23.882Z,59.8889
2023-04-14T04:58:26.210Z,60.2268
2023-04-14T04:59:28.542Z,60.0958
2023-04-14T05:00:30.863Z,60.2431
2023-04-14T05:01:33.253Z,59.9756
2023-04-14T05:02:35.667Z,60.0461
2023-04-14T05:03:37.896Z,60.6404
2023-04-14T05:04:40.234Z,61.3449
2023-04-14T05:05:42.519Z,61.8497
2023-04-14T05:06:44.839Z,62.1762
2023-04-14T05:07:47.167Z,62.0810
2023-04-14T05:08:49.496Z,61.5367
2023-04-14T05:09:51.821Z,61.2823
2023-04-14T05:10:54.140Z,61.1699
2023-04-14T05:11:56.475Z,61.1117
2023-04-14T05:12:58.798Z,61.5328
2023-04-14T05:14:01.138Z,62.2759
2023-04-14T05:15:03.452Z,61.9172
2023-04-14T05:16:05.828Z,61.3929
2023-04-14T05:17:08.117Z,61.1657
2023-04-14T05:18:10.465Z,60.8599
2023-04-14T05:19:12.772Z,60.4597
2023-04-14T05:20:15.103Z,60.3120
2023-04-14T05:21:17.426Z,60.5379
2023-04-14T05:22:19.776Z,61.0922
2023-04-14T05:23:22.107Z,60.8561
2023-04-14T05:24:24.423Z,60.7609
2023-04-14T05:25:26.755Z,60.7992
2023-04-14T05:26:46.430Z,60.6067
2023-04-14T05:27:31.448Z,60.7362
2023-04-14T05:28:33.745Z,60.2049
2023-04-14T05:29:36.071Z,59.6851
2023-04-14T05:30:38.401Z,59.6981
2023-04-14T05:31:40.875Z,60.0734
2023-04-14T05:32:43.106Z,59.5570
2023-04-14T05:33:45.402Z,59.6904
2023-04-14T05:34:47.729Z,59.8616
2023-04-14T05:35:50.057Z,59.1503
2023-04-14T05:36:52.393Z,59.1197
2023-04-14T05:37:54.713Z,59.1102
2023-04-14T05:38:57.070Z,58.7977
2023-04-14T05:39:59.380Z,58.7964
2023-04-14T05:41:01.714Z,59.0441
2023-04-14T05:42:04.043Z,59.4664
2023-04-14T05:43:06.377Z,59.6750
2023-04-14T05:44:08.732Z,60.0573
2023-04-14T05:45:11.043Z,59.4933
2023-04-14T05:46:13.376Z,59.1958
2023-04-14T05:47:15.730Z,58.9568
2023-04-14T05:48:18.032Z,59.4639
2023-04-14T05:49:20.369Z,59.3675
2023-04-14T05:50:22.703Z,58.8539
2023-04-14T05:51:25.029Z,58.2076
2023-04-14T05:52:27.361Z,58.2023
2023-04-14T05:53:29.688Z,58.2590
2023-04-14T05:54:32.033Z,58.9277
2023-04-14T05:55:34.359Z,59.2659
2023-04-14T05:56:36.705Z,59.4096
2023-04-14T05:57:39.012Z,60.0427
2023-04-14T05:58:41.333Z,60.3699
2023-04-14T05:59:43.749Z,60.6889
2023-04-14T06:00:46.001Z,60.8526
2023-04-14T06:01:48.415Z,61.0978
2023-04-14T06:02:50.846Z,61.3585
2023-04-14T06:03:53.215Z,61.5515
2023-04-14T06:04:55.442Z,61.3756
2023-04-14T06:05:57.646Z,61.1055
2023-04-14T06:06:59.984Z,61.0284
2023-04-14T06:08:02.320Z,60.9158
2023-04-14T06:09:04.644Z,60.9340
2023-04-14T06:10:06.998Z,61.2286
2023-04-14T06:11:09.307Z,60.6581
2023-04-14T06:12:11.645Z,60.1394
2023-04-14T06:13:13.968Z,60.9788
2023-04-14T06:14:16.299Z,60.8100
2023-04-14T06:15:18.632Z,61.4405
2023-04-14T06:16:21.050Z,61.5988
2023-04-14T06:17:23.329Z,61.3479
2023-04-14T06:18:25.630Z,60.2777
2023-04-14T06:19:27.951Z,60.1926
2023-04-14T06:20:32.145Z,60.2711
2023-04-14T06:21:32.612Z,59.4852
2023-04-14T06:22:34.959Z,59.5964
2023-04-14T06:23:37.285Z,59.8769
2023-04-14T06:24:39.613Z,60.6009
2023-04-14T06:25:41.952Z,59.8727
2023-04-14T06:26:44.287Z,59.4940
2023-04-14T06:27:46.617Z,59.7210
2023-04-14T06:28:48.950Z,59.3513
2023-04-14T06:29:51.275Z,59.0156
2023-04-14T06:30:53.627Z,59.8747
2023-04-14T06:31:55.986Z,60.0687
2023-04-14T06:32:58.326Z,59.7430
2023-04-14T06:34:00.612Z,59.7891
2023-04-14T06:35:02.938Z,59.1094
2023-04-14T06:36:05.278Z,59.5659
2023-04-14T06:37:07.624Z,60.6233
2023-04-14T06:38:09.932Z,60.9357
2023-04-14T06:39:12.277Z,61.0806
2023-04-14T06:40:14.587Z,60.8176
2023-04-14T06:41:16.916Z,60.1930
2023-04-14T06:42:19.247Z,58.7766
2023-04-14T06:43:21.591Z,59.2814
2023-04-14T06:44:23.906Z,58.9542
2023-04-14T06:45:26.247Z,56.8290
2023-04-14T06:46:28.646Z,56.4930
2023-04-14T06:47:30.933Z,56.4716
2023-04-14T06:48:33.262Z,56.6221
2023-04-14T06:49:35.576Z,57.0512
2023-04-14T06:50:37.955Z,56.6904
2023-04-14T06:51:40.291Z,56.2353
2023-04-14T06:52:42.622Z,56.2565
2023-04-14T06:53:44.944Z,56.6067
2023-04-14T06:54:47.273Z,56.7834
2023-04-14T06:55:49.604Z,56.2873
2023-04-14T06:56:51.930Z,56.9347
2023-04-14T06:57:54.259Z,56.8290
2023-04-14T06:58:56.596Z,57.1368
2023-04-14T06:59:58.918Z,57.7455
2023-04-14T07:01:01.295Z,57.8568
2023-04-14T07:02:03.711Z,57.2382
2023-04-14T07:03:06.104Z,56.9306
2023-04-14T07:04:08.555Z,56.5047
2023-04-14T07:05:10.646Z,55.2484
2023-04-14T07:06:12.913Z,55.8744
2023-04-14T07:07:15.239Z,57.2799
2023-04-14T07:08:17.573Z,57.1606
2023-04-14T07:09:19.983Z,56.3314
2023-04-14T07:10:22.239Z,56.2916
2023-04-14T07:11:24.580Z,56.1419
2023-04-14T07:12:26.921Z,57.2168
2023-04-14T07:13:29.241Z,57.4184
2023-04-14T07:14:31.590Z,55.9364
2023-04-14T07:15:33.920Z,56.3610
2023-04-14T07:16:36.226Z,56.6777
2023-04-14T07:17:38.605Z,56.6303
2023-04-14T07:18:40.898Z,57.1930
2023-04-14T07:19:43.245Z,57.0999
2023-04-14T07:20:45.568Z,56.3162
2023-04-14T07:21:47.892Z,55.5000
2023-04-14T07:22:50.231Z,56.7896
2023-04-14T07:23:52.562Z,56.3320
2023-04-14T07:24:54.888Z,55.5866
2023-04-14T07:25:57.226Z,55.0488
2023-04-14T07:26:59.553Z,54.6911
2023-04-14T07:28:03.974Z,55.5629
2023-04-14T07:29:04.210Z,56.4851
2023-04-14T07:30:06.541Z,56.4701
2023-04-14T07:31:08.959Z,56.8896
2023-04-14T07:32:11.200Z,57.5331
2023-04-14T07:33:13.526Z,57.2767
2023-04-14T07:34:15.861Z,55.2832
2023-04-14T07:35:18.193Z,54.8115
2023-04-14T07:36:20.521Z,54.8688
2023-04-14T07:37:22.955Z,55.4815
2023-04-14T07:38:25.180Z,56.1287
2023-04-14T07:39:27.513Z,54.9362
2023-04-14T07:40:29.866Z,54.6830
2023-04-14T07:41:32.184Z,54.1685
2023-04-14T07:42:34.521Z,55.0543
2023-04-14T07:43:36.862Z,56.7824
2023-04-14T07:44:39.172Z,57.3423
2023-04-14T07:45:41.504Z,56.2352
2023-04-14T07:46:43.950Z,55.7241
2023-04-14T07:47:46.231Z,54.4718
2023-04-14T07:48:48.506Z,54.3875
2023-04-14T07:49:50.843Z,52.4867
2023-04-14T07:50:53.163Z,53.3833
2023-04-14T07:51:55.550Z,53.7221
2023-04-14T07:52:57.838Z,54.6244
2023-04-14T07:54:00.320Z,54.7209
2023-04-14T07:55:02.481Z,53.7191
2023-04-14T07:56:04.825Z,53.8880
2023-04-14T07:57:07.153Z,55.3001
2023-04-14T07:58:09.485Z,54.9556
2023-04-14T07:59:11.815Z,54.2551
2023-04-14T08:00:14.140Z,54.2384
2023-04-14T08:01:16.474Z,53.5349
2023-04-14T08:02:18.908Z,51.8731
2023-04-14T08:03:21.438Z,52.0502
2023-04-14T08:04:23.496Z,52.8283
2023-04-14T08:05:25.837Z,52.4014
2023-04-14T08:06:28.150Z,52.1887
2023-04-14T08:07:31.210Z,52.2338
2023-04-14T08:08:32.814Z,51.1799
2023-04-14T08:09:35.126Z,51.0380
2023-04-14T08:10:37.459Z,50.6652
2023-04-14T08:11:39.795Z,51.5786
2023-04-14T08:12:42.133Z,50.5643
2023-04-14T08:13:44.480Z,50.3043
2023-04-14T08:14:46.804Z,50.6319
2023-04-14T08:15:49.220Z,48.0732
2023-04-14T08:16:51.567Z,47.0215
2023-04-14T08:17:53.842Z,47.0291
2023-04-14T08:18:58.011Z,48.3049
2023-04-14T08:19:58.485Z,46.6549
2023-04-14T08:21:00.850Z,47.0889
2023-04-14T08:22:03.168Z,47.0419
2023-04-14T08:23:05.491Z,48.1306
2023-04-14T08:24:07.828Z,48.9147
2023-04-14T08:25:10.705Z,49.0217
2023-04-14T08:26:12.510Z,48.6717
2023-04-14T08:27:14.834Z,49.2068
2023-04-14T08:28:17.187Z,50.0003
2023-04-14T08:29:19.516Z,48.7730
2023-04-14T08:30:21.851Z,47.9196
2023-04-14T08:31:24.393Z,46.5081
2023-04-14T08:32:28.655Z,46.9800
2023-04-14T08:33:28.873Z,47.8605
2023-04-14T08:34:31.219Z,47.2598
2023-04-14T08:35:39.766Z,46.9315
2023-04-14T08:36:35.895Z,46.6603
2023-04-14T08:37:38.230Z,46.4427
2023-04-14T08:38:40.561Z,46.2547
2023-04-14T08:39:42.894Z,46.7516
2023-04-14T08:40:45.224Z,47.1946
2023-04-14T08:41:47.571Z,46.0473
2023-04-14T08:42:49.908Z,44.3828
2023-04-14T08:43:52.249Z,43.8539
2023-04-14T08:44:54.574Z,44.8944
2023-04-14T08:45:56.981Z,45.3745
2023-04-14T08:46:59.254Z,44.7839
2023-04-14T08:48:01.670Z,46.2821
2023-04-14T08:49:03.954Z,46.5473
2023-04-14T08:50:06.300Z,46.1481
2023-04-14T08:51:08.608Z,45.4417
2023-04-14T08:52:10.945Z,45.4268
2023-04-14T08:53:13.287Z,46.2572
2023-04-14T08:54:15.631Z,42.9310
2023-04-14T08:55:17.968Z,43.4264
2023-04-14T08:56:20.307Z,42.7261
2023-04-14T08:57:22.670Z,43.2942
2023-04-14T08:58:24.991Z,44.2533
2023-04-14T08:59:27.325Z,43.8800
2023-04-14T09:00:29.677Z,44.0793
2023-04-14T09:01:34.343Z,44.4039
2023-04-14T09:02:34.446Z,43.6987
2023-04-14T09:03:37.843Z,43.2206
2023-04-14T09:04:39.112Z,42.3157
2023-04-14T09:05:41.371Z,41.5958
2023-04-14T09:06:43.715Z,40.2395
2023-04-14T09:07:46.059Z,39.9933
2023-04-14T09:08:48.409Z,41.0812
2023-04-14T09:09:50.718Z,43.0594
2023-04-14T09:10:53.073Z,42.2253
2023-04-14T09:11:55.392Z,42.2065
2023-04-14T09:12:57.740Z,41.6203
2023-04-14T09:14:00.365Z,41.0993
2023-04-14T09:15:02.463Z,41.7003
2023-04-14T09:16:04.747Z,42.1353
2023-04-14T09:17:07.116Z,42.4320
2023-04-14T09:18:09.452Z,43.1154
2023-04-14T09:19:11.776Z,43.0727
2023-04-14T09:20:35.717Z,42.0129
2023-04-14T09:21:49.825Z,40.2692
2023-04-14T09:22:18.774Z,41.1297
2023-04-14T09:23:21.698Z,41.7539
2023-04-14T09:24:23.528Z,41.2540
2023-04-14T09:25:25.800Z,40.2179
2023-04-14T09:26:28.137Z,39.5662
2023-04-14T09:27:30.479Z,41.3711
2023-04-14T09:28:32.826Z,42.4745
2023-04-14T09:29:35.183Z,43.6387
2023-04-14T09:30:37.568Z,43.8892
2023-04-14T09:31:39.935Z,43.1149
2023-04-14T09:32:42.213Z,42.4541
2023-04-14T09:33:44.567Z,42.4495
2023-04-14T09:34:46.872Z,41.6361
2023-04-14T09:35:49.210Z,42.1545
2023-04-14T09:36:51.541Z,43.0103
2023-04-14T09:37:53.882Z,43.8377
2023-04-14T09:38:56.216Z,43.4201
2023-04-14T09:39:58.581Z,42.7644
2023-04-14T09:41:00.896Z,42.1977
2023-04-14T09:42:03.232Z,42.3912
2023-04-14T09:43:05.574Z,43.1313
2023-04-14T09:44:07.911Z,43.6654
2023-04-14T09:45:10.390Z,44.1661
2023-04-14T09:46:12.701Z,45.3670
2023-04-14T09:47:14.931Z,44.7890
2023-04-14T09:48:17.271Z,45.1333
2023-04-14T09:49:19.621Z,44.9673
2023-04-14T09:50:21.947Z,45.6193
2023-04-14T09:51:24.277Z,45.0296
2023-04-14T09:52:26.623Z,44.6567
2023-04-14T09:53:28.976Z,44.8989
2023-04-14T09:54:31.302Z,44.7677
2023-04-14T09:55:33.633Z,44.2346
2023-04-14T09:56:35.974Z,43.4920
2023-04-14T09:57:38.340Z,42.5709
2023-04-14T09:58:40.652Z,42.0953
2023-04-14T09:59:42.994Z,43.5018
2023-04-14T10:00:45.329Z,43.0518
2023-04-14T10:01:47.748Z,42.1772
2023-04-14T10:02:50.141Z,41.6441
2023-04-14T10:03:52.420Z,41.1217
2023-04-14T10:04:54.775Z,40.3895
2023-04-14T10:05:57.030Z,42.0098
2023-04-14T10:06:59.373Z,40.6798
2023-04-14T10:08:01.712Z,41.3700
2023-04-14T10:09:04.483Z,41.1125
2023-04-14T10:10:06.412Z,38.9587
2023-04-14T10:11:08.745Z,39.3005
2023-04-14T10:12:11.105Z,40.0727
2023-04-14T10:13:13.432Z,40.8244
2023-04-14T10:14:15.772Z,39.8642
2023-04-14T10:15:18.114Z,39.5590
2023-04-14T10:16:20.492Z,39.7993
2023-04-14T10:17:22.863Z,38.3896
2023-04-14T10:18:25.139Z,38.4612
2023-04-14T10:19:27.497Z,38.6436
2023-04-14T10:20:29.824Z,39.3676
2023-04-14T10:21:32.173Z,39.9425
2023-04-14T10:22:34.525Z,40.8808
2023-04-14T10:23:36.856Z,39.6713
2023-04-14T10:24:39.197Z,39.0488
2023-04-14T10:25:41.540Z,35.1465
2023-04-14T10:26:43.891Z,35.0565
2023-04-14T10:27:46.241Z,36.2489
2023-04-14T10:28:48.562Z,36.9213
2023-04-14T10:29:50.898Z,36.5739
2023-04-14T10:30:53.248Z,37.4445
2023-04-14T10:31:55.597Z,37.9844
2023-04-14T10:32:57.983Z,38.8341
2023-04-14T10:34:00.264Z,40.2300
2023-04-14T10:35:02.595Z,40.6613
2023-04-14T10:36:04.938Z,38.5779
2023-04-14T10:37:07.272Z,39.4777
2023-04-14T10:38:09.622Z,41.3397
2023-04-14T10:39:11.962Z,40.3736
2023-04-14T10:40:14.297Z,39.8096
2023-04-14T10:41:16.646Z,39.4552
2023-04-14T10:42:18.988Z,40.7504
2023-04-14T10:43:21.351Z,41.1745
2023-04-14T10:44:23.674Z,41.4431
2023-04-14T10:45:26.004Z,42.0534
2023-04-14T10:46:28.364Z,42.5755
2023-04-14T10:47:30.714Z,41.1061
2023-04-14T10:48:33.057Z,39.4716
2023-04-14T10:49:35.381Z,37.7844
2023-04-14T10:50:37.707Z,38.1744
2023-04-14T10:51:40.065Z,38.7309
2023-04-14T10:52:42.402Z,38.1206
2023-04-14T10:53:44.764Z,38.2689
2023-04-14T10:54:47.079Z,37.6641
2023-04-14T10:55:51.998Z,37.3686
2023-04-14T10:56:51.836Z,37.2769
2023-04-14T10:57:54.193Z,37.1881
2023-04-14T10:58:56.518Z,38.0701
2023-04-14T10:59:59.136Z,37.2826
2023-04-14T11:01:01.220Z,36.8658
2023-04-14T11:02:03.587Z,36.1259
2023-04-14T11:03:06.055Z,37.1887
2023-04-14T11:04:08.425Z,35.6984
2023-04-14T11:05:10.576Z,35.4992
2023-04-14T11:06:12.907Z,34.7519
2023-04-14T11:07:15.248Z,34.5375
2023-04-14T11:08:17.603Z,34.2774
2023-04-14T11:09:19.933Z,34.0292
2023-04-14T11:10:22.299Z,34.1214
2023-04-14T11:11:24.634Z,33.1151
2023-04-14T11:12:26.972Z,33.5134
2023-04-14T11:13:29.323Z,32.0367
2023-04-14T11:14:31.655Z,30.7893
2023-04-14T11:15:34.000Z,31.1914
2023-04-14T11:16:38.673Z,31.7716
2023-04-14T11:17:38.916Z,33.0561
2023-04-14T11:18:41.465Z,35.4536
2023-04-14T11:19:43.371Z,36.5161
2023-04-14T11:20:45.720Z,36.7482
2023-04-14T11:21:48.051Z,36.2182
2023-04-14T11:22:50.397Z,36.8293
2023-04-14T11:23:52.737Z,36.0435
2023-04-14T11:24:55.084Z,34.4214
2023-04-14T11:25:57.443Z,33.1183
2023-04-14T11:26:59.768Z,32.5297
2023-04-14T11:28:02.156Z,32.8508
2023-04-14T11:29:04.473Z,33.6576
2023-04-14T11:30:06.824Z,34.7833
2023-04-14T11:31:09.151Z,33.8576
2023-04-14T11:32:11.516Z,33.5694
2023-04-14T11:33:13.872Z,34.4210
2023-04-14T11:34:16.160Z,35.6610
2023-04-14T11:35:18.510Z,35.1069
2023-04-14T11:36:20.863Z,33.2344
2023-04-14T11:37:23.216Z,33.9586
2023-04-14T11:38:25.535Z,34.5993
2023-04-14T11:39:27.883Z,34.5128
2023-04-14T11:40:30.227Z,34.1364
2023-04-14T11:41:32.585Z,33.3131
2023-04-14T11:42:34.920Z,32.8456
2023-04-14T11:43:37.259Z,34.1964
2023-04-14T11:44:39.608Z,36.2298
2023-04-14T11:45:41.980Z,36.2769
2023-04-14T11:46:44.276Z,34.8267
2023-04-14T11:47:46.651Z,33.7015
2023-04-14T11:48:48.972Z,33.1664
2023-04-14T11:49:51.316Z,33.3693
2023-04-14T11:50:53.712Z,32.8096
2023-04-14T11:51:55.990Z,31.6406
2023-04-14T11:52:58.330Z,31.8574
2023-04-14T11:54:00.700Z,31.7852
2023-04-14T11:55:03.052Z,32.7606
2023-04-14T11:56:05.371Z,32.2027
2023-04-14T11:57:07.708Z,32.8894
2023-04-14T11:58:10.031Z,31.9839
2023-04-14T11:59:12.385Z,31.5196
2023-04-14T12:00:14.862Z,31.7752
2023-04-14T12:01:17.055Z,31.7140
2023-04-14T12:02:19.611Z,32.3178
2023-04-14T12:03:21.938Z,32.0400
2023-04-14T12:04:24.345Z,32.1551
2023-04-14T12:05:26.455Z,32.8568
2023-04-14T12:06:28.777Z,33.5212
2023-04-14T12:07:31.120Z,33.6660
2023-04-14T12:08:33.456Z,34.8518
2023-04-14T12:09:35.766Z,35.1332
2023-04-14T12:10:38.099Z,35.9395
2023-04-14T12:11:40.453Z,36.0715
2023-04-14T12:12:42.777Z,35.0989
2023-04-14T12:13:45.124Z,34.3385
2023-04-14T12:14:47.471Z,34.2777
2023-04-14T12:15:49.823Z,35.4089
2023-04-14T12:16:52.152Z,35.4337
2023-04-14T12:17:55.697Z,35.6314
2023-04-14T12:18:56.821Z,35.1411
2023-04-14T12:19:59.168Z,36.5272
2023-04-14T12:21:01.502Z,37.4427
2023-04-14T12:22:03.849Z,36.8858
2023-04-14T12:23:06.173Z,34.1163
2023-04-14T12:24:08.513Z,34.8342
2023-04-14T12:25:10.850Z,35.2022
2023-04-14T12:26:13.226Z,33.8838
2023-04-14T12:27:15.541Z,34.2055
2023-04-14T12:28:17.867Z,34.8068
2023-04-14T12:29:20.216Z,36.6277
2023-04-14T12:30:22.548Z,36.3593
2023-04-14T12:31:24.922Z,36.0424
2023-04-14T12:32:27.258Z,33.4484
2023-04-14T12:33:29.567Z,32.7993